createdAt,value
2023-01-17T00:16:46.591Z,9.80
2023-01-17T00:19:48.869Z,8.80
2023-01-17T00:22:43.539Z,10.20
2023-01-17T00:25:43.153Z,9.00
2023-01-17T00:28:10.047Z,7.60
2023-01-17T00:30:36.937Z,8.30
2023-01-17T00:33:04.990Z,10.60
2023-01-17T00:35:32.125Z,7.90
2023-01-17T00:38:03.392Z,9.70
2023-01-17T00:40:31.447Z,7.90
2023-01-17T00:43:17.183Z,8.80
2023-01-17T00:46:03.593Z,8.30
2023-01-17T00:48:49.626Z,11.40
2023-01-17T00:51:35.338Z,9.20
2023-01-17T00:54:20.991Z,7.80
2023-01-17T00:57:07.228Z,8.80
2023-01-17T00:59:53.067Z,7.60
2023-01-17T01:02:39.317Z,9.30
2023-01-17T01:05:25.950Z,9.50
2023-01-17T01:08:11.511Z,9.00
2023-01-17T01:10:57.871Z,9.80
2023-01-17T01:13:44.367Z,10.40
2023-01-17T01:16:30.770Z,9.20
2023-01-17T01:19:17.559Z,10.20
2023-01-17T01:22:03.092Z,10.20
2023-01-17T01:24:48.736Z,10.70
2023-01-17T01:27:34.236Z,10.20
2023-01-17T01:30:19.871Z,9.20
2023-01-17T01:33:05.817Z,7.30
2023-01-17T01:35:36.526Z,9.30
2023-01-17T01:38:03.573Z,7.80
2023-01-17T01:40:31.115Z,9.50
2023-01-17T01:42:59.314Z,8.50
2023-01-17T01:45:28.698Z,9.00
2023-01-17T01:48:17.173Z,9.50
2023-01-17T01:50:43.999Z,9.50
2023-01-17T01:53:10.963Z,10.50
2023-01-17T01:55:39.910Z,9.20
2023-01-17T01:58:15.227Z,9.30
2023-01-17T02:00:42.146Z,7.90
2023-01-17T02:03:24.224Z,8.30
2023-01-17T02:05:51.377Z,9.20
2023-01-17T06:44:47.368Z,22.90
2023-01-17T06:47:14.243Z,24.10
2023-01-17T06:49:41.790Z,27.40
2023-01-17T06:52:10.061Z,21.10
2023-01-17T06:54:37.048Z,20.20
2023-01-17T06:57:04.844Z,19.30
2023-01-17T06:59:32.187Z,19.40
2023-01-17T07:02:00.268Z,21.80
2023-01-17T07:04:27.601Z,16.70
2023-01-17T07:06:55.061Z,18.70
2023-01-17T07:09:22.755Z,20.50
2023-01-17T07:11:51.694Z,21.60
2023-01-17T07:14:19.332Z,18.40
2023-01-17T07:19:17.613Z,17.20
2023-01-17T07:21:44.961Z,16.40
2023-01-17T07:24:12.038Z,19.60
2023-01-17T07:26:40.446Z,18.10
2023-01-17T07:29:08.084Z,17.80
2023-01-17T07:31:37.639Z,17.80
2023-01-17T07:34:05.348Z,19.00
2023-01-17T07:36:34.252Z,19.30
2023-01-17T07:39:02.038Z,22.90
2023-01-17T07:41:41.144Z,18.60
2023-01-17T07:44:12.041Z,18.50
2023-01-17T07:46:40.527Z,17.00
2023-01-17T07:49:08.042Z,16.70
2023-01-17T07:51:36.479Z,17.80
2023-01-17T07:54:07.345Z,17.50
2023-01-17T07:56:37.797Z,18.10
2023-01-17T08:01:32.635Z,16.30
2023-01-17T08:04:09.701Z,17.10
2023-01-17T08:06:37.634Z,16.30
2023-01-17T08:09:06.616Z,17.20
2023-01-17T08:11:34.762Z,15.30
2023-01-17T10:00:02.884Z,22.50
2023-01-17T10:02:52.600Z,29.90
2023-01-17T10:05:26.824Z,24.00
2023-01-17T10:07:58.115Z,24.20
2023-01-17T10:10:31.695Z,28.50
2023-01-17T10:13:04.451Z,18.70
2023-01-17T10:15:48.179Z,22.70
2023-01-17T10:18:29.568Z,23.30
2023-01-17T10:21:04.727Z,24.10
2023-01-17T10:23:45.719Z,20.70
2023-01-17T10:26:17.325Z,22.70
2023-01-17T10:28:48.165Z,25.70
2023-01-17T10:31:20.445Z,22.80
2023-01-17T10:33:55.587Z,20.90
2023-01-17T10:36:38.832Z,22.80
2023-01-17T10:39:20.783Z,22.80
2023-01-17T10:41:54.817Z,24.30
2023-01-17T10:44:44.269Z,24.40
2023-01-17T10:47:11.032Z,20.20
2023-01-17T10:49:39.699Z,21.60
2023-01-17T10:52:16.172Z,20.80
2023-01-17T10:55:04.550Z,23.70
2023-01-17T10:57:42.156Z,23.20
2023-01-17T11:00:39.443Z,21.80
2023-01-17T11:03:07.092Z,21.90
2023-01-17T11:05:34.347Z,21.50
2023-01-17T11:08:01.936Z,24.00
2023-01-17T11:10:42.832Z,23.60
2023-01-17T11:13:21.982Z,23.30
2023-01-17T11:15:50.717Z,23.20
2023-01-17T11:18:18.883Z,26.80
2023-01-17T11:20:46.087Z,26.20
2023-01-17T11:23:18.011Z,20.40
2023-01-17T11:25:49.599Z,25.60
2023-01-17T11:28:20.993Z,22.60
2023-01-17T11:30:52.280Z,21.40
2023-01-17T11:33:35.537Z,21.60
2023-01-17T11:36:02.570Z,19.30
2023-01-17T11:38:29.740Z,27.60
2023-01-17T11:41:17.167Z,21.90
2023-01-17T11:43:52.796Z,20.90
2023-01-17T11:46:20.139Z,26.50
2023-01-17T11:48:56.304Z,20.40
2023-01-17T11:51:34.806Z,26.60
2023-01-17T11:54:38.983Z,20.80
2023-01-17T11:57:08.124Z,22.00
2023-01-17T11:59:38.181Z,23.90
2023-01-17T12:02:31.258Z,23.60
2023-01-17T12:05:27.796Z,24.10
2023-01-17T12:08:01.479Z,22.30
2023-01-17T12:10:46.762Z,21.40
2023-01-17T12:13:45.862Z,21.00
2023-01-17T12:16:31.282Z,22.70
2023-01-17T17:49:33.878Z,18.10
2023-01-17T17:52:07.501Z,27.10
2023-01-17T17:54:34.895Z,23.30
2023-01-17T17:57:02.057Z,24.50
2023-01-17T17:59:30.047Z,23.30
2023-01-17T18:01:58.944Z,25.20
2023-01-17T18:04:26.288Z,28.20
2023-01-17T18:06:56.865Z,28.50
2023-01-17T18:09:24.530Z,28.20
2023-01-17T18:11:51.899Z,23.00
2023-01-17T18:14:21.583Z,30.60
2023-01-17T18:16:48.837Z,24.20
2023-01-17T18:19:17.669Z,27.20
2023-01-17T18:21:44.901Z,23.00
2023-01-17T18:24:16.607Z,20.40
2023-01-17T18:26:46.073Z,21.40
2023-01-17T18:29:18.006Z,21.60
2023-01-17T18:31:45.498Z,21.40
2023-01-17T18:34:21.545Z,18.80
2023-01-17T18:36:48.845Z,25.60
2023-01-17T18:39:21.509Z,21.70
2023-01-17T18:41:49.466Z,20.50
2023-01-17T18:46:43.692Z,21.10
2023-01-17T18:49:11.657Z,21.30
2023-01-17T18:51:39.094Z,20.80
2023-01-17T18:54:07.385Z,20.40
2023-01-17T18:56:35.414Z,22.60
2023-01-17T19:01:32.553Z,19.60
2023-01-17T19:04:02.520Z,19.90
2023-01-17T19:06:32.423Z,19.50
2023-01-17T19:08:59.754Z,21.50
2023-01-17T19:11:27.216Z,18.00
2023-01-17T19:13:54.911Z,18.70
2023-01-17T19:16:24.708Z,18.90
2023-01-17T19:18:52.464Z,20.30
2023-01-17T19:21:24.173Z,17.20
2023-01-17T19:23:51.408Z,20.40
2023-01-17T19:26:20.573Z,24.20
2023-01-17T19:28:48.313Z,29.30
2023-01-17T19:31:17.535Z,25.00
2023-01-17T19:33:45.412Z,23.90
2023-01-17T19:38:55.183Z,24.10
2023-01-17T19:41:30.898Z,23.10
2023-01-17T19:43:59.493Z,21.60
2023-01-17T19:46:27.635Z,18.60
2023-01-17T19:48:55.663Z,19.60
2023-01-17T19:51:23.080Z,18.80
2023-01-17T19:53:50.339Z,17.70
2023-01-17T19:56:19.422Z,18.20
2023-01-17T19:58:47.629Z,16.60
2023-01-17T20:01:16.764Z,16.80
